createdAt,value
2023-02-11T00:01:20.085Z,80.57
2023-02-11T00:11:21.401Z,79.15
2023-02-11T00:21:22.669Z,78.93
2023-02-11T00:31:24.109Z,73.85
2023-02-11T00:41:26.099Z,73.68
2023-02-11T00:51:27.384Z,74.00
2023-02-11T01:01:28.748Z,77.60
2023-02-11T01:11:30.087Z,73.15
2023-02-11T01:21:31.410Z,75.32
2023-02-11T01:31:32.902Z,70.72
2023-02-11T01:41:34.296Z,66.07
2023-02-11T01:51:35.679Z,70.32
2023-02-11T02:01:37.023Z,70.40
2023-02-11T02:11:38.348Z,63.22
2023-02-11T02:21:39.617Z,56.50
2023-02-11T02:31:40.911Z,64.90
2023-02-11T02:41:42.213Z,65.05
2023-02-11T02:51:43.609Z,65.35
2023-02-11T03:01:45.505Z,61.95
2023-02-11T03:11:46.787Z,61.08
2023-02-11T03:21:48.282Z,66.05
2023-02-11T03:31:49.623Z,58.17
2023-02-11T03:41:51.060Z,61.80
2023-02-11T03:51:52.347Z,63.22
2023-02-11T04:01:53.652Z,57.28
2023-02-11T04:11:54.969Z,57.47
2023-02-11T04:21:56.313Z,56.55
2023-02-11T04:31:57.638Z,57.88
2023-02-11T04:41:58.919Z,60.35
2023-02-11T04:52:00.195Z,63.42
2023-02-11T05:02:01.871Z,60.83
2023-02-11T05:12:03.186Z,59.25
2023-02-11T05:22:04.532Z,61.13
2023-02-11T05:32:07.310Z,58.33
2023-02-11T05:42:08.595Z,59.63
2023-02-11T05:52:09.882Z,63.08
2023-02-11T06:02:11.335Z,65.75
2023-02-11T06:12:12.708Z,60.60
2023-02-11T06:22:13.994Z,65.93
2023-02-11T06:32:36.473Z,63.97
2023-02-11T06:42:38.780Z,65.00
2023-02-11T06:52:40.070Z,55.17
2023-02-11T07:02:41.447Z,53.95
2023-02-11T07:12:42.782Z,57.20
2023-02-11T07:22:44.072Z,60.30
2023-02-11T07:32:45.366Z,67.93
2023-02-11T07:42:46.676Z,66.95
2023-02-11T07:52:47.953Z,70.32
2023-02-11T08:02:49.241Z,58.10
2023-02-11T08:12:50.549Z,64.85
2023-02-11T08:22:51.804Z,60.70
2023-02-11T08:32:53.074Z,60.78
2023-02-11T08:42:54.363Z,57.22
2023-02-11T08:52:55.668Z,44.95
2023-02-11T09:02:57.287Z,41.78
2023-02-11T09:12:58.638Z,39.60
2023-02-11T09:23:00.017Z,42.22
2023-02-11T09:33:01.708Z,40.28
2023-02-11T09:43:04.272Z,41.03
2023-02-11T09:53:05.680Z,43.10
2023-02-11T10:03:06.968Z,36.83
2023-02-11T10:13:08.288Z,30.25
2023-02-11T10:23:09.576Z,34.13
2023-02-11T10:33:10.838Z,31.13
2023-02-11T10:43:12.502Z,34.10
2023-02-11T10:53:13.772Z,38.47
2023-02-11T11:03:15.044Z,35.15
2023-02-11T11:13:16.337Z,36.17
2023-02-11T11:23:17.677Z,35.30
2023-02-11T11:33:18.973Z,34.17
2023-02-11T11:43:23.118Z,32.28
2023-02-11T11:53:24.624Z,33.17
2023-02-11T12:03:26.000Z,39.40
2023-02-11T12:13:27.344Z,37.63
2023-02-11T12:23:28.618Z,35.03
2023-02-11T12:33:29.915Z,32.83
2023-02-11T12:43:31.226Z,35.22
2023-02-11T12:53:33.554Z,37.42
2023-02-11T13:03:34.886Z,31.75
2023-02-11T13:13:36.193Z,32.92
2023-02-11T13:23:37.504Z,34.97
2023-02-11T13:33:39.610Z,25.15
2023-02-11T13:43:40.934Z,24.13
2023-02-11T13:53:42.214Z,26.08
2023-02-11T14:04:02.222Z,23.42
2023-02-11T14:14:03.543Z,25.13
2023-02-11T14:24:05.039Z,27.55
2023-02-11T14:34:06.451Z,28.17
2023-02-11T14:44:07.750Z,27.50
2023-02-11T14:54:09.061Z,26.40
2023-02-11T15:04:10.349Z,25.38
2023-02-11T15:14:11.675Z,23.77
2023-02-11T15:24:13.003Z,22.38
2023-02-11T15:34:14.282Z,22.15
2023-02-11T15:44:15.566Z,20.75
2023-02-11T15:54:17.045Z,19.30
2023-02-11T16:04:18.388Z,23.08
2023-02-11T16:14:19.683Z,31.42
2023-02-11T16:24:23.858Z,30.77
2023-02-11T16:34:25.171Z,31.33
2023-02-11T16:44:26.456Z,43.58
2023-02-11T16:54:27.766Z,35.78
2023-02-11T17:04:29.215Z,31.63
2023-02-11T17:14:30.588Z,31.55
2023-02-11T17:24:31.909Z,34.85
2023-02-11T17:34:33.230Z,33.03
2023-02-11T17:44:34.519Z,34.33
2023-02-11T17:54:35.853Z,36.88
2023-02-11T18:04:37.171Z,29.25
2023-02-11T18:14:38.497Z,30.65
2023-02-11T18:24:39.791Z,27.98
2023-02-11T18:34:41.185Z,24.15
2023-02-11T18:44:42.527Z,25.92
2023-02-11T18:54:43.812Z,28.48
2023-02-11T19:04:45.272Z,32.67
2023-02-11T19:14:46.638Z,26.17
2023-02-11T19:24:47.947Z,32.55
2023-02-11T19:34:49.329Z,25.38
2023-02-11T19:44:50.631Z,25.73
2023-02-11T19:54:51.939Z,26.25
2023-02-11T20:04:53.238Z,29.05
2023-02-11T20:14:54.548Z,29.33
2023-02-11T20:24:55.986Z,33.88
2023-02-11T20:34:57.293Z,27.48
2023-02-11T20:44:58.587Z,21.42
2023-02-11T20:55:01.641Z,26.65
2023-02-11T21:05:02.954Z,26.95
2023-02-11T21:15:05.349Z,29.83
2023-02-11T21:25:06.700Z,32.35
2023-02-11T21:35:07.985Z,33.35
2023-02-11T21:45:09.311Z,26.23
2023-02-11T21:55:10.582Z,37.53
2023-02-11T22:05:11.887Z,32.55
2023-02-11T22:15:13.208Z,28.85
2023-02-11T22:25:14.501Z,26.98
2023-02-11T22:35:15.807Z,41.15
2023-02-11T22:45:17.076Z,34.63
2023-02-11T22:55:18.382Z,34.78
2023-02-11T23:05:19.687Z,34.60
2023-02-11T23:15:20.971Z,33.60
2023-02-11T23:25:22.265Z,38.25
2023-02-11T23:35:24.774Z,30.60
2023-02-11T23:45:26.108Z,34.03
2023-02-11T23:55:27.427Z,33.33
